sensor_id;sensor_type;location;lat;lon;timestamp;pressure;altitude;pressure_sealevel;temperature;humidity
51958;BME280;41120;51.820;20.804;2022-09-16T00:00:15;98199.88;;;9.42;100.00
51958;BME280;41120;51.820;20.804;2022-09-16T00:03:06;98197.41;;;9.40;100.00
51958;BME280;41120;51.820;20.804;2022-09-16T00:05:38;98185.63;;;9.27;100.00
51958;BME280;41120;51.820;20.804;2022-09-16T00:08:06;98201.00;;;9.39;100.00
51958;BME280;41120;51.820;20.804;2022-09-16T00:10:33;98201.94;;;9.38;100.00
51958;BME280;41120;51.820;20.804;2022-09-16T00:13:01;98198.94;;;9.33;100.00
51958;BME280;41120;51.820;20.804;2022-09-16T00:15:28;98194.69;;;9.23;100.00
51958;BME280;41120;51.820;20.804;2022-09-16T00:17:59;98191.00;;;9.15;100.00
51958;BME280;41120;51.820;20.804;2022-09-16T00:20:59;98208.84;;;9.30;100.00
51958;BME280;41120;51.820;20.804;2022-09-16T00:26:46;98204.03;;;9.25;100.00
51958;BME280;41120;51.820;20.804;2022-09-16T00:29:13;98209.16;;;9.17;100.00
51958;BME280;41120;51.820;20.804;2022-09-16T00:31:53;98205.56;;;9.18;100.00
51958;BME280;41120;51.820;20.804;2022-09-16T00:34:36;98222.59;;;9.32;100.00
51958;BME280;41120;51.820;20.804;2022-09-16T00:37:10;98218.59;;;9.37;100.00
51958;BME280;41120;51.820;20.804;2022-09-16T00:40:03;98213.88;;;9.41;100.00
51958;BME280;41120;51.820;20.804;2022-09-16T00:42:36;98214.75;;;9.41;100.00
51958;BME280;41120;51.820;20.804;2022-09-16T00:45:23;98211.84;;;9.45;100.00
51958;BME280;41120;51.820;20.804;2022-09-16T00:50:59;98202.50;;;9.32;100.00
51958;BME280;41120;51.820;20.804;2022-09-16T00:53:39;98216.78;;;9.38;100.00
51958;BME280;41120;51.820;20.804;2022-09-16T00:56:09;98211.97;;;9.33;100.00
51958;BME280;41120;51.820;20.804;2022-09-16T00:58:52;98214.06;;;9.30;100.00
51958;BME280;41120;51.820;20.804;2022-09-16T01:01:23;98212.56;;;9.27;100.00
51958;BME280;41120;51.820;20.804;2022-09-16T01:04:07;98213.38;;;9.28;100.00
51958;BME280;41120;51.820;20.804;2022-09-16T01:06:44;98209.13;;;9.27;100.00
51958;BME280;41120;51.820;20.804;2022-09-16T01:09:11;98217.91;;;9.26;100.00
51958;BME280;41120;51.820;20.804;2022-09-16T01:11:43;98201.69;;;9.32;100.00
51958;BME280;41120;51.820;20.804;2022-09-16T01:46:48;98216.59;;;9.69;100.00
51958;BME280;41120;51.820;20.804;2022-09-16T01:50:12;98223.84;;;9.75;100.00
51958;BME280;41120;51.820;20.804;2022-09-16T01:52:45;98214.88;;;9.77;100.00
51958;BME280;41120;51.820;20.804;2022-09-16T01:55:31;98227.81;;;9.79;100.00
51958;BME280;41120;51.820;20.804;2022-09-16T01:58:02;98223.81;;;9.84;100.00
51958;BME280;41120;51.820;20.804;2022-09-16T02:00:34;98206.09;;;9.78;100.00
51958;BME280;41120;51.820;20.804;2022-09-16T02:03:27;98229.69;;;9.96;100.00
51958;BME280;41120;51.820;20.804;2022-09-16T02:09:14;98239.56;;;10.02;100.00
51958;BME280;41120;51.820;20.804;2022-09-16T02:11:53;98231.91;;;9.91;100.00
51958;BME280;41120;51.820;20.804;2022-09-16T02:14:26;98236.59;;;9.88;100.00
51958;BME280;41120;51.820;20.804;2022-09-16T02:17:12;98240.75;;;9.80;100.00
51958;BME280;41120;51.820;20.804;2022-09-16T02:25:26;98244.50;;;9.68;100.00
51958;BME280;41120;51.820;20.804;2022-09-16T02:27:54;98235.44;;;9.62;100.00
51958;BME280;41120;51.820;20.804;2022-09-16T02:30:28;98242.44;;;9.62;100.00
51958;BME280;41120;51.820;20.804;2022-09-16T02:33:03;98244.25;;;9.61;100.00
51958;BME280;41120;51.820;20.804;2022-09-16T02:35:47;98247.00;;;9.60;100.00
51958;BME280;41120;51.820;20.804;2022-09-16T02:38:24;98233.53;;;9.55;100.00
51958;BME280;41120;51.820;20.804;2022-09-16T02:40:56;98254.97;;;9.58;100.00
51958;BME280;41120;51.820;20.804;2022-09-16T02:43:30;98215.84;;;9.39;100.00
51958;BME280;41120;51.820;20.804;2022-09-16T02:46:33;98243.84;;;9.56;100.00
51958;BME280;41120;51.820;20.804;2022-09-16T02:55:37;98247.53;;;9.73;100.00
51958;BME280;41120;51.820;20.804;2022-09-16T02:58:08;98243.25;;;9.72;100.00
51958;BME280;41120;51.820;20.804;2022-09-16T03:00:43;98236.47;;;9.79;100.00
51958;BME280;41120;51.820;20.804;2022-09-16T03:03:11;98243.50;;;9.79;100.00
51958;BME280;41120;51.820;20.804;2022-09-16T03:08:42;98234.69;;;9.80;100.00
51958;BME280;41120;51.820;20.804;2022-09-16T03:21:28;98239.41;;;9.67;100.00
51958;BME280;41120;51.820;20.804;2022-09-16T03:23:58;98243.13;;;9.64;100.00
51958;BME280;41120;51.820;20.804;2022-09-16T03:38:41;98241.38;;;9.45;100.00
51958;BME280;41120;51.820;20.804;2022-09-16T03:41:10;98243.59;;;9.40;100.00
51958;BME280;41120;51.820;20.804;2022-09-16T03:43:39;98231.66;;;9.37;100.00
51958;BME280;41120;51.820;20.804;2022-09-16T03:46:10;98252.13;;;9.42;100.00
51958;BME280;41120;51.820;20.804;2022-09-16T03:48:39;98252.53;;;9.37;100.00
51958;BME280;41120;51.820;20.804;2022-09-16T03:53:58;98256.13;;;9.27;100.00
51958;BME280;41120;51.820;20.804;2022-09-16T03:56:41;98256.81;;;9.19;100.00
51958;BME280;41120;51.820;20.804;2022-09-16T03:59:29;98258.75;;;9.17;100.00
51958;BME280;41120;51.820;20.804;2022-09-16T04:02:01;98255.69;;;9.21;100.00
51958;BME280;41120;51.820;20.804;2022-09-16T04:04:31;98252.84;;;9.25;100.00
51958;BME280;41120;51.820;20.804;2022-09-16T04:06:57;98249.94;;;9.18;100.00
51958;BME280;41120;51.820;20.804;2022-09-16T04:09:30;98253.94;;;9.12;100.00
51958;BME280;41120;51.820;20.804;2022-09-16T04:15:03;98265.91;;;9.15;100.00
51958;BME280;41120;51.820;20.804;2022-09-16T04:17:44;98262.03;;;9.09;100.00
51958;BME280;41120;51.820;20.804;2022-09-16T04:20:38;98273.31;;;9.10;100.00
51958;BME280;41120;51.820;20.804;2022-09-16T04:23:22;98256.00;;;8.99;100.00
51958;BME280;41120;51.820;20.804;2022-09-16T04:26:02;98268.75;;;9.12;100.00
51958;BME280;41120;51.820;20.804;2022-09-16T04:28:36;98261.38;;;9.07;100.00
51958;BME280;41120;51.820;20.804;2022-09-16T04:31:07;98271.53;;;9.10;100.00
51958;BME280;41120;51.820;20.804;2022-09-16T04:33:37;98277.28;;;9.14;100.00
51958;BME280;41120;51.820;20.804;2022-09-16T04:36:19;98276.88;;;9.18;100.00
51958;BME280;41120;51.820;20.804;2022-09-16T04:38:48;98266.13;;;9.21;100.00
51958;BME280;41120;51.820;20.804;2022-09-16T04:41:48;98261.59;;;9.33;100.00
51958;BME280;41120;51.820;20.804;2022-09-16T04:44:17;98264.50;;;9.40;100.00
51958;BME280;41120;51.820;20.804;2022-09-16T04:46:44;98263.09;;;9.46;100.00
51958;BME280;41120;51.820;20.804;2022-09-16T04:49:23;98270.38;;;9.61;100.00
51958;BME280;41120;51.820;20.804;2022-09-16T04:51:49;98258.81;;;9.64;100.00
51958;BME280;41120;51.820;20.804;2022-09-16T04:54:22;98257.28;;;9.71;100.00
51958;BME280;41120;51.820;20.804;2022-09-16T04:56:47;98272.34;;;9.87;100.00
51958;BME280;41120;51.820;20.804;2022-09-16T04:59:14;98281.16;;;9.96;100.00
51958;BME280;41120;51.820;20.804;2022-09-16T05:01:53;98279.44;;;10.04;100.00
51958;BME280;41120;51.820;20.804;2022-09-16T05:04:26;98267.34;;;10.03;100.00
51958;BME280;41120;51.820;20.804;2022-09-16T05:09:40;98291.63;;;10.33;100.00
51958;BME280;41120;51.820;20.804;2022-09-16T05:12:30;98287.41;;;10.50;100.00
51958;BME280;41120;51.820;20.804;2022-09-16T05:14:57;98261.41;;;10.66;100.00
51958;BME280;41120;51.820;20.804;2022-09-16T05:17:49;98280.50;;;11.30;100.00
51958;BME280;41120;51.820;20.804;2022-09-16T05:20:26;98277.53;;;11.95;100.00
51958;BME280;41120;51.820;20.804;2022-09-16T05:23:00;98274.00;;;12.47;100.00
51958;BME280;41120;51.820;20.804;2022-09-16T05:25:49;98289.50;;;12.75;100.00
51958;BME280;41120;51.820;20.804;2022-09-16T05:28:48;98288.00;;;12.64;100.00
51958;BME280;41120;51.820;20.804;2022-09-16T05:34:19;98301.44;;;13.36;100.00
51958;BME280;41120;51.820;20.804;2022-09-16T05:36:47;98299.81;;;13.35;100.00
51958;BME280;41120;51.820;20.804;2022-09-16T05:39:15;98297.34;;;13.42;100.00
51958;BME280;41120;51.820;20.804;2022-09-16T05:41:44;98303.09;;;13.29;100.00
51958;BME280;41120;51.820;20.804;2022-09-16T05:44:16;98285.69;;;13.28;100.00
51958;BME280;41120;51.820;20.804;2022-09-16T05:46:43;98307.66;;;13.84;100.00
51958;BME280;41120;51.820;20.804;2022-09-16T05:49:20;98291.34;;;14.53;100.00
51958;BME280;41120;51.820;20.804;2022-09-16T05:51:49;98302.22;;;14.50;100.00
51958;BME280;41120;51.820;20.804;2022-09-16T05:54:22;98308.88;;;14.21;100.00
51958;BME280;41120;51.820;20.804;2022-09-16T05:56:51;98305.06;;;13.52;100.00
51958;BME280;41120;51.820;20.804;2022-09-16T05:59:26;98300.13;;;13.32;100.00
51958;BME280;41120;51.820;20.804;2022-09-16T06:01:53;98291.91;;;13.35;100.00
51958;BME280;41120;51.820;20.804;2022-09-16T06:04:19;98316.22;;;13.78;100.00
51958;BME280;41120;51.820;20.804;2022-09-16T06:06:56;98289.97;;;13.29;100.00
51958;BME280;41120;51.820;20.804;2022-09-16T06:09:23;98292.50;;;12.96;100.00
51958;BME280;41120;51.820;20.804;2022-09-16T06:11:51;98296.03;;;12.62;100.00
51958;BME280;41120;51.820;20.804;2022-09-16T06:14:28;98299.31;;;12.64;100.00
51958;BME280;41120;51.820;20.804;2022-09-16T06:16:54;98289.75;;;12.55;100.00
51958;BME280;41120;51.820;20.804;2022-09-16T06:19:28;98303.78;;;12.72;100.00
51958;BME280;41120;51.820;20.804;2022-09-16T06:22:05;98306.94;;;12.92;100.00
51958;BME280;41120;51.820;20.804;2022-09-16T06:24:31;98298.84;;;12.77;100.00
51958;BME280;41120;51.820;20.804;2022-09-16T06:27:08;98298.56;;;12.80;100.00
51958;BME280;41120;51.820;20.804;2022-09-16T06:29:50;98293.97;;;12.91;100.00
51958;BME280;41120;51.820;20.804;2022-09-16T06:35:16;98300.47;;;13.37;100.00
51958;BME280;41120;51.820;20.804;2022-09-16T06:37:49;98299.94;;;13.17;100.00
51958;BME280;41120;51.820;20.804;2022-09-16T06:40:23;98284.97;;;12.93;100.00
51958;BME280;41120;51.820;20.804;2022-09-16T06:42:53;98305.06;;;13.27;100.00
51958;BME280;41120;51.820;20.804;2022-09-16T06:45:36;98316.19;;;13.21;100.00
51958;BME280;41120;51.820;20.804;2022-09-16T06:48:02;98309.94;;;13.14;100.00
51958;BME280;41120;51.820;20.804;2022-09-16T06:51:09;98328.06;;;13.90;100.00
51958;BME280;41120;51.820;20.804;2022-09-16T06:53:42;98323.13;;;13.96;100.00
51958;BME280;41120;51.820;20.804;2022-09-16T06:56:18;98327.41;;;13.72;100.00
51958;BME280;41120;51.820;20.804;2022-09-16T06:58:46;98316.47;;;14.16;100.00
51958;BME280;41120;51.820;20.804;2022-09-16T07:01:22;98327.38;;;13.97;100.00
51958;BME280;41120;51.820;20.804;2022-09-16T07:03:54;98308.53;;;13.68;100.00
51958;BME280;41120;51.820;20.804;2022-09-16T07:06:26;98332.16;;;13.77;100.00
51958;BME280;41120;51.820;20.804;2022-09-16T07:09:00;98328.84;;;13.99;100.00
51958;BME280;41120;51.820;20.804;2022-09-16T07:11:31;98329.34;;;14.98;100.00
51958;BME280;41120;51.820;20.804;2022-09-16T07:13:57;98323.56;;;15.26;100.00
51958;BME280;41120;51.820;20.804;2022-09-16T07:16:33;98336.22;;;16.14;98.92
51958;BME280;41120;51.820;20.804;2022-09-16T07:19:17;98342.03;;;16.84;91.84
51958;BME280;41120;51.820;20.804;2022-09-16T07:22:12;98337.78;;;17.26;90.11
51958;BME280;41120;51.820;20.804;2022-09-16T07:24:43;98342.19;;;15.93;89.72
51958;BME280;41120;51.820;20.804;2022-09-16T07:27:21;98344.56;;;16.18;87.76
51958;BME280;41120;51.820;20.804;2022-09-16T07:29:52;98344.66;;;15.72;94.57
51958;BME280;41120;51.820;20.804;2022-09-16T07:32:44;98338.88;;;15.53;92.20
51958;BME280;41120;51.820;20.804;2022-09-16T07:35:16;98336.91;;;15.70;91.88
51958;BME280;41120;51.820;20.804;2022-09-16T07:37:51;98322.81;;;14.86;95.48
51958;BME280;41120;51.820;20.804;2022-09-16T07:40:20;98339.63;;;15.39;95.26
51958;BME280;41120;51.820;20.804;2022-09-16T07:42:51;98319.94;;;15.73;91.60
51958;BME280;41120;51.820;20.804;2022-09-16T07:45:17;98352.50;;;15.80;87.51
51958;BME280;41120;51.820;20.804;2022-09-16T07:47:51;98344.84;;;15.47;87.72
51958;BME280;41120;51.820;20.804;2022-09-16T07:50:17;98341.59;;;15.60;90.57
51958;BME280;41120;51.820;20.804;2022-09-16T07:52:52;98337.41;;;16.26;92.98
51958;BME280;41120;51.820;20.804;2022-09-16T07:55:24;98340.84;;;16.57;87.43
51958;BME280;41120;51.820;20.804;2022-09-16T07:57:52;98352.22;;;16.27;84.68
51958;BME280;41120;51.820;20.804;2022-09-16T08:00:20;98357.38;;;15.68;86.86
51958;BME280;41120;51.820;20.804;2022-09-16T08:02:49;98348.31;;;15.16;92.96
51958;BME280;41120;51.820;20.804;2022-09-16T08:08:08;98344.94;;;14.76;93.23
51958;BME280;41120;51.820;20.804;2022-09-16T08:10:51;98351.44;;;14.49;92.43
51958;BME280;41120;51.820;20.804;2022-09-16T08:13:31;98350.03;;;14.78;92.53
51958;BME280;41120;51.820;20.804;2022-09-16T08:16:05;98343.19;;;14.92;91.42
51958;BME280;41120;51.820;20.804;2022-09-16T08:18:32;98341.03;;;15.27;91.08
51958;BME280;41120;51.820;20.804;2022-09-16T08:21:21;98343.06;;;15.16;90.62
51958;BME280;41120;51.820;20.804;2022-09-16T08:23:54;98342.69;;;14.96;90.97
51958;BME280;41120;51.820;20.804;2022-09-16T08:26:23;98340.97;;;14.81;90.54
51958;BME280;41120;51.820;20.804;2022-09-16T08:28:59;98342.00;;;15.26;91.19
51958;BME280;41120;51.820;20.804;2022-09-16T08:31:26;98347.72;;;15.37;89.97
51958;BME280;41120;51.820;20.804;2022-09-16T08:34:17;98344.28;;;15.06;89.03
51958;BME280;41120;51.820;20.804;2022-09-16T08:36:52;98342.94;;;14.79;90.88
51958;BME280;41120;51.820;20.804;2022-09-16T08:39:32;98341.69;;;14.58;93.68
51958;BME280;41120;51.820;20.804;2022-09-16T08:42:30;98347.13;;;14.48;93.90
51958;BME280;41120;51.820;20.804;2022-09-16T08:51:24;98349.53;;;14.19;94.32
51958;BME280;41120;51.820;20.804;2022-09-16T08:54:01;98348.97;;;14.56;92.70
51958;BME280;41120;51.820;20.804;2022-09-16T08:56:32;98347.94;;;15.05;90.96
51958;BME280;41120;51.820;20.804;2022-09-16T08:59:04;98358.72;;;15.41;89.95
51958;BME280;41120;51.820;20.804;2022-09-16T09:01:43;98347.53;;;15.39;90.94
51958;BME280;41120;51.820;20.804;2022-09-16T09:04:13;98359.00;;;15.69;89.65
51958;BME280;41120;51.820;20.804;2022-09-16T09:07:07;98353.59;;;15.71;87.23
51958;BME280;41120;51.820;20.804;2022-09-16T09:09:59;98353.44;;;15.64;90.65
51958;BME280;41120;51.820;20.804;2022-09-16T09:12:38;98351.50;;;15.58;88.07
51958;BME280;41120;51.820;20.804;2022-09-16T09:24:06;98344.34;;;14.97;84.92
51958;BME280;41120;51.820;20.804;2022-09-16T09:26:56;98338.41;;;14.95;85.28
51958;BME280;41120;51.820;20.804;2022-09-16T09:41:15;98350.00;;;14.30;93.44
51958;BME280;41120;51.820;20.804;2022-09-16T09:46:39;98339.72;;;14.60;95.67
51958;BME280;41120;51.820;20.804;2022-09-16T09:52:16;98347.81;;;15.21;89.24
51958;BME280;41120;51.820;20.804;2022-09-16T09:54:54;98354.03;;;14.97;90.29
51958;BME280;41120;51.820;20.804;2022-09-16T09:57:52;98356.88;;;14.87;90.08
51958;BME280;41120;51.820;20.804;2022-09-16T10:00:22;98357.72;;;14.88;88.62
51958;BME280;41120;51.820;20.804;2022-09-16T10:02:50;98354.38;;;15.02;85.46
51958;BME280;41120;51.820;20.804;2022-09-16T10:05:32;98357.84;;;14.94;83.76
51958;BME280;41120;51.820;20.804;2022-09-16T10:08:21;98351.53;;;14.72;84.44
51958;BME280;41120;51.820;20.804;2022-09-16T10:10:57;98343.38;;;15.22;85.96
51958;BME280;41120;51.820;20.804;2022-09-16T10:13:29;98355.47;;;15.39;84.60
51958;BME280;41120;51.820;20.804;2022-09-16T10:16:14;98363.16;;;15.40;83.82
51958;BME280;41120;51.820;20.804;2022-09-16T10:18:43;98356.91;;;15.41;84.48
51958;BME280;41120;51.820;20.804;2022-09-16T10:21:15;98356.31;;;15.31;84.85
51958;BME280;41120;51.820;20.804;2022-09-16T10:23:55;98362.28;;;15.25;85.68
51958;BME280;41120;51.820;20.804;2022-09-16T10:26:40;98351.16;;;15.38;85.80
51958;BME280;41120;51.820;20.804;2022-09-16T10:29:21;98344.34;;;15.67;86.56
51958;BME280;41120;51.820;20.804;2022-09-16T10:31:48;98347.53;;;15.62;85.36
51958;BME280;41120;51.820;20.804;2022-09-16T10:37:15;98349.72;;;15.96;87.91
51958;BME280;41120;51.820;20.804;2022-09-16T10:39:54;98325.34;;;16.24;83.15
51958;BME280;41120;51.820;20.804;2022-09-16T10:42:45;98343.13;;;16.45;84.41
51958;BME280;41120;51.820;20.804;2022-09-16T10:45:44;98343.09;;;16.75;81.89
51958;BME280;41120;51.820;20.804;2022-09-16T10:48:29;98345.84;;;16.81;80.07
51958;BME280;41120;51.820;20.804;2022-09-16T10:53:55;98343.84;;;16.54;80.86
51958;BME280;41120;51.820;20.804;2022-09-16T10:56:28;98334.00;;;16.47;80.71
51958;BME280;41120;51.820;20.804;2022-09-16T10:59:07;98343.91;;;16.60;82.93
51958;BME280;41120;51.820;20.804;2022-09-16T11:10:26;98338.59;;;15.71;81.98
51958;BME280;41120;51.820;20.804;2022-09-16T11:13:17;98330.53;;;16.02;82.22
51958;BME280;41120;51.820;20.804;2022-09-16T11:35:13;98319.09;;;17.70;74.32
51958;BME280;41120;51.820;20.804;2022-09-16T12:09:23;98312.25;;;16.97;64.52
51958;BME280;41120;51.820;20.804;2022-09-16T12:12:04;98309.19;;;16.93;65.60
51958;BME280;41120;51.820;20.804;2022-09-16T12:18:13;98308.13;;;16.87;64.96
51958;BME280;41120;51.820;20.804;2022-09-16T12:21:05;98300.44;;;16.78;68.78
51958;BME280;41120;51.820;20.804;2022-09-16T12:24:10;98304.47;;;16.88;69.42
51958;BME280;41120;51.820;20.804;2022-09-16T12:27:05;98294.53;;;16.90;70.82
51958;BME280;41120;51.820;20.804;2022-09-16T12:39:09;98288.34;;;16.83;72.57
51958;BME280;41120;51.820;20.804;2022-09-16T12:42:01;98289.97;;;16.84;72.11
51958;BME280;41120;51.820;20.804;2022-09-16T12:44:53;98278.75;;;16.82;70.93
51958;BME280;41120;51.820;20.804;2022-09-16T12:51:00;98284.72;;;17.49;72.53
51958;BME280;41120;51.820;20.804;2022-09-16T13:02:50;98290.69;;;16.93;73.52
51958;BME280;41120;51.820;20.804;2022-09-16T13:05:23;98293.84;;;17.03;72.37
51958;BME280;41120;51.820;20.804;2022-09-16T13:07:55;98285.41;;;17.15;73.97
51958;BME280;41120;51.820;20.804;2022-09-16T13:10:32;98298.38;;;17.09;71.67
51958;BME280;41120;51.820;20.804;2022-09-16T13:13:05;98290.38;;;17.03;71.13
51958;BME280;41120;51.820;20.804;2022-09-16T13:15:53;98290.59;;;16.86;70.69
51958;BME280;41120;51.820;20.804;2022-09-16T13:18:40;98294.31;;;16.92;73.49
51958;BME280;41120;51.820;20.804;2022-09-16T13:21:38;98295.50;;;16.89;70.11
51958;BME280;41120;51.820;20.804;2022-09-16T13:27:30;98297.69;;;17.01;72.38
51958;BME280;41120;51.820;20.804;2022-09-16T13:36:11;98295.97;;;15.97;76.25
51958;BME280;41120;51.820;20.804;2022-09-16T13:38:43;98292.84;;;16.09;74.63
51958;BME280;41120;51.820;20.804;2022-09-16T13:47:47;98291.66;;;16.26;72.84
51958;BME280;41120;51.820;20.804;2022-09-16T13:50:22;98285.41;;;15.97;74.97
51958;BME280;41120;51.820;20.804;2022-09-16T13:53:08;98288.09;;;15.89;74.47
51958;BME280;41120;51.820;20.804;2022-09-16T13:55:46;98280.19;;;15.89;76.40
51958;BME280;41120;51.820;20.804;2022-09-16T13:58:23;98280.56;;;15.86;73.02
51958;BME280;41120;51.820;20.804;2022-09-16T14:13:44;98265.81;;;15.54;77.89
51958;BME280;41120;51.820;20.804;2022-09-16T14:16:28;98257.41;;;15.35;77.64
51958;BME280;41120;51.820;20.804;2022-09-16T14:19:06;98255.38;;;15.23;81.97
51958;BME280;41120;51.820;20.804;2022-09-16T14:21:38;98257.84;;;15.24;80.23
51958;BME280;41120;51.820;20.804;2022-09-16T14:24:21;98261.34;;;15.39;79.70
51958;BME280;41120;51.820;20.804;2022-09-16T14:26:59;98259.88;;;15.37;79.24
51958;BME280;41120;51.820;20.804;2022-09-16T14:29:32;98265.50;;;15.34;78.31
51958;BME280;41120;51.820;20.804;2022-09-16T14:32:02;98256.09;;;15.31;77.92
51958;BME280;41120;51.820;20.804;2022-09-16T14:34:44;98258.88;;;15.38;76.16
51958;BME280;41120;51.820;20.804;2022-09-16T14:37:15;98250.13;;;15.37;74.67
51958;BME280;41120;51.820;20.804;2022-09-16T14:39:43;98263.88;;;15.48;73.38
51958;BME280;41120;51.820;20.804;2022-09-16T14:42:23;98266.03;;;15.29;75.72
51958;BME280;41120;51.820;20.804;2022-09-16T14:44:52;98272.81;;;15.24;75.65
51958;BME280;41120;51.820;20.804;2022-09-16T14:47:30;98268.16;;;15.34;75.62
51958;BME280;41120;51.820;20.804;2022-09-16T14:50:15;98265.81;;;15.54;72.30
51958;BME280;41120;51.820;20.804;2022-09-16T14:53:00;98272.91;;;15.76;69.35
51958;BME280;41120;51.820;20.804;2022-09-16T14:58:32;98272.69;;;15.63;68.97
51958;BME280;41120;51.820;20.804;2022-09-16T15:01:10;98269.41;;;15.38;74.02
51958;BME280;41120;51.820;20.804;2022-09-16T15:04:15;98266.31;;;15.11;73.33
51958;BME280;41120;51.820;20.804;2022-09-16T15:06:45;98274.16;;;14.96;74.80
51958;BME280;41120;51.820;20.804;2022-09-16T15:09:32;98268.66;;;14.83;76.06
51958;BME280;41120;51.820;20.804;2022-09-16T15:12:17;98280.38;;;14.81;76.72
51958;BME280;41120;51.820;20.804;2022-09-16T15:14:45;98277.09;;;14.79;79.42
51958;BME280;41120;51.820;20.804;2022-09-16T15:17:23;98278.69;;;14.88;76.61
51958;BME280;41120;51.820;20.804;2022-09-16T15:19:59;98267.38;;;14.79;79.48
51958;BME280;41120;51.820;20.804;2022-09-16T15:22:39;98253.81;;;14.59;80.88
51958;BME280;41120;51.820;20.804;2022-09-16T15:25:25;98257.97;;;14.45;83.72
51958;BME280;41120;51.820;20.804;2022-09-16T15:28:16;98263.34;;;14.21;84.07
51958;BME280;41120;51.820;20.804;2022-09-16T15:30:53;98263.38;;;14.04;85.66
51958;BME280;41120;51.820;20.804;2022-09-16T15:33:40;98257.28;;;14.12;86.40
51958;BME280;41120;51.820;20.804;2022-09-16T15:39:24;98258.44;;;14.09;87.15
51958;BME280;41120;51.820;20.804;2022-09-16T15:42:16;98252.03;;;14.04;88.57
51958;BME280;41120;51.820;20.804;2022-09-16T15:48:51;98239.81;;;13.63;91.22
51958;BME280;41120;51.820;20.804;2022-09-16T15:51:48;98252.66;;;13.50;93.08
51958;BME280;41120;51.820;20.804;2022-09-16T15:54:20;98261.19;;;13.36;96.07
51958;BME280;41120;51.820;20.804;2022-09-16T16:00:00;98254.09;;;13.12;100.00
51958;BME280;41120;51.820;20.804;2022-09-16T16:02:52;98253.78;;;12.98;100.00
51958;BME280;41120;51.820;20.804;2022-09-16T16:05:25;98240.44;;;12.92;100.00
51958;BME280;41120;51.820;20.804;2022-09-16T16:07:59;98241.28;;;12.84;100.00
51958;BME280;41120;51.820;20.804;2022-09-16T16:13:51;98247.47;;;12.58;100.00
51958;BME280;41120;51.820;20.804;2022-09-16T16:16:33;98250.22;;;12.49;100.00
51958;BME280;41120;51.820;20.804;2022-09-16T16:22:34;98240.59;;;12.15;100.00
51958;BME280;41120;51.820;20.804;2022-09-16T16:25:01;98239.38;;;12.01;100.00
51958;BME280;41120;51.820;20.804;2022-09-16T16:27:33;98240.84;;;11.95;100.00
51958;BME280;41120;51.820;20.804;2022-09-16T16:30:01;98238.22;;;11.77;100.00
51958;BME280;41120;51.820;20.804;2022-09-16T16:32:34;98235.25;;;11.72;100.00
51958;BME280;41120;51.820;20.804;2022-09-16T16:35:23;98235.34;;;11.63;100.00
51958;BME280;41120;51.820;20.804;2022-09-16T16:38:02;98239.44;;;11.57;100.00
51958;BME280;41120;51.820;20.804;2022-09-16T16:40:30;98235.09;;;11.48;100.00
51958;BME280;41120;51.820;20.804;2022-09-16T16:42:56;98233.25;;;11.40;100.00
51958;BME280;41120;51.820;20.804;2022-09-16T16:45:22;98232.88;;;11.35;100.00
51958;BME280;41120;51.820;20.804;2022-09-16T16:47:54;98237.63;;;11.31;100.00
51958;BME280;41120;51.820;20.804;2022-09-16T16:50:21;98239.50;;;11.21;100.00
51958;BME280;41120;51.820;20.804;2022-09-16T16:53:13;98234.78;;;11.07;100.00
51958;BME280;41120;51.820;20.804;2022-09-16T16:55:42;98241.81;;;11.06;100.00
51958;BME280;41120;51.820;20.804;2022-09-16T16:58:15;98231.59;;;10.95;100.00
51958;BME280;41120;51.820;20.804;2022-09-16T17:00:48;98245.50;;;10.96;100.00
51958;BME280;41120;51.820;20.804;2022-09-16T17:03:16;98241.47;;;10.83;100.00
51958;BME280;41120;51.820;20.804;2022-09-16T17:05:50;98242.03;;;10.77;100.00
51958;BME280;41120;51.820;20.804;2022-09-16T17:08:16;98238.69;;;10.67;100.00
51958;BME280;41120;51.820;20.804;2022-09-16T17:10:42;98248.63;;;10.63;100.00
51958;BME280;41120;51.820;20.804;2022-09-16T17:13:17;98240.38;;;10.58;100.00
51958;BME280;41120;51.820;20.804;2022-09-16T17:15:43;98249.59;;;10.62;100.00
51958;BME280;41120;51.820;20.804;2022-09-16T17:18:09;98242.53;;;10.45;100.00
51958;BME280;41120;51.820;20.804;2022-09-16T17:20:36;98251.88;;;10.47;100.00
51958;BME280;41120;51.820;20.804;2022-09-16T17:23:02;98257.41;;;10.44;100.00
51958;BME280;41120;51.820;20.804;2022-09-16T17:25:34;98252.38;;;10.33;100.00
51958;BME280;41120;51.820;20.804;2022-09-16T17:28:03;98250.56;;;10.34;100.00
51958;BME280;41120;51.820;20.804;2022-09-16T17:30:42;98257.22;;;10.28;100.00
51958;BME280;41120;51.820;20.804;2022-09-16T17:33:11;98251.19;;;10.18;100.00
51958;BME280;41120;51.820;20.804;2022-09-16T17:35:44;98247.84;;;10.25;100.00
51958;BME280;41120;51.820;20.804;2022-09-16T17:38:20;98244.84;;;10.20;100.00
51958;BME280;41120;51.820;20.804;2022-09-16T17:43:48;98250.69;;;10.04;100.00
51958;BME280;41120;51.820;20.804;2022-09-16T17:46:15;98252.91;;;9.99;100.00
51958;BME280;41120;51.820;20.804;2022-09-16T17:48:47;98252.25;;;9.97;100.00
51958;BME280;41120;51.820;20.804;2022-09-16T17:51:13;98257.75;;;9.94;100.00
51958;BME280;41120;51.820;20.804;2022-09-16T17:53:47;98248.13;;;9.85;100.00
51958;BME280;41120;51.820;20.804;2022-09-16T17:56:17;98248.59;;;9.80;100.00
51958;BME280;41120;51.820;20.804;2022-09-16T17:59:03;98251.91;;;9.73;100.00
51958;BME280;41120;51.820;20.804;2022-09-16T18:01:33;98256.63;;;9.59;100.00
51958;BME280;41120;51.820;20.804;2022-09-16T18:04:02;98247.81;;;9.51;100.00
51958;BME280;41120;51.820;20.804;2022-09-16T18:06:56;98251.44;;;9.40;100.00